sensor_id;sensor_type;location;lat;lon;timestamp;temperature;humidity
16827;DHT22;8530;49.540;8.576;2023-05-13T00:01:34;11.60;97.50
16827;DHT22;8530;49.540;8.576;2023-05-13T00:04:03;11.60;97.60
16827;DHT22;8530;49.540;8.576;2023-05-13T00:06:30;11.50;97.70
16827;DHT22;8530;49.540;8.576;2023-05-13T00:08:59;11.50;97.90
16827;DHT22;8530;49.540;8.576;2023-05-13T00:11:26;11.40;98.00
16827;DHT22;8530;49.540;8.576;2023-05-13T00:13:53;11.30;98.10
16827;DHT22;8530;49.540;8.576;2023-05-13T00:16:19;11.30;98.30
16827;DHT22;8530;49.540;8.576;2023-05-13T00:18:48;11.30;98.40
16827;DHT22;8530;49.540;8.576;2023-05-13T00:21:15;11.20;98.50
16827;DHT22;8530;49.540;8.576;2023-05-13T00:23:42;11.20;98.70
16827;DHT22;8530;49.540;8.576;2023-05-13T00:26:10;11.20;98.80
16827;DHT22;8530;49.540;8.576;2023-05-13T00:28:36;11.10;99.00
16827;DHT22;8530;49.540;8.576;2023-05-13T00:31:03;11.10;99.10
16827;DHT22;8530;49.540;8.576;2023-05-13T00:33:30;11.10;99.20
16827;DHT22;8530;49.540;8.576;2023-05-13T00:35:56;11.10;99.30
16827;DHT22;8530;49.540;8.576;2023-05-13T00:38:23;11.00;99.40
16827;DHT22;8530;49.540;8.576;2023-05-13T00:40:50;11.00;99.50
16827;DHT22;8530;49.540;8.576;2023-05-13T00:43:18;11.00;99.60
16827;DHT22;8530;49.540;8.576;2023-05-13T00:45:45;10.90;99.70
16827;DHT22;8530;49.540;8.576;2023-05-13T00:48:11;10.90;99.80
16827;DHT22;8530;49.540;8.576;2023-05-13T00:50:38;10.80;99.80
16827;DHT22;8530;49.540;8.576;2023-05-13T00:53:06;10.80;99.90
16827;DHT22;8530;49.540;8.576;2023-05-13T00:55:33;10.80;99.90
16827;DHT22;8530;49.540;8.576;2023-05-13T00:58:00;10.70;99.90
16827;DHT22;8530;49.540;8.576;2023-05-13T01:00:28;10.70;99.90
16827;DHT22;8530;49.540;8.576;2023-05-13T01:03:01;10.70;99.90
16827;DHT22;8530;49.540;8.576;2023-05-13T01:05:37;10.70;99.90
16827;DHT22;8530;49.540;8.576;2023-05-13T01:08:19;10.60;99.90
16827;DHT22;8530;49.540;8.576;2023-05-13T01:10:53;10.60;99.90
16827;DHT22;8530;49.540;8.576;2023-05-13T01:13:23;10.50;99.90
16827;DHT22;8530;49.540;8.576;2023-05-13T01:15:58;10.50;99.90
16827;DHT22;8530;49.540;8.576;2023-05-13T01:18:30;10.40;99.90
16827;DHT22;8530;49.540;8.576;2023-05-13T01:20:57;10.40;99.90
16827;DHT22;8530;49.540;8.576;2023-05-13T01:23:27;10.40;99.90
16827;DHT22;8530;49.540;8.576;2023-05-13T01:25:54;10.30;99.90
16827;DHT22;8530;49.540;8.576;2023-05-13T01:28:21;10.30;99.90
16827;DHT22;8530;49.540;8.576;2023-05-13T01:30:48;10.30;99.90
16827;DHT22;8530;49.540;8.576;2023-05-13T01:33:16;10.20;99.90
16827;DHT22;8530;49.540;8.576;2023-05-13T01:35:44;10.20;99.90
16827;DHT22;8530;49.540;8.576;2023-05-13T01:38:12;10.10;99.90
16827;DHT22;8530;49.540;8.576;2023-05-13T01:40:41;10.10;99.90
16827;DHT22;8530;49.540;8.576;2023-05-13T01:43:09;10.10;99.90
16827;DHT22;8530;49.540;8.576;2023-05-13T01:45:36;10.10;99.90
16827;DHT22;8530;49.540;8.576;2023-05-13T01:48:02;10.00;99.90
16827;DHT22;8530;49.540;8.576;2023-05-13T01:50:29;10.00;99.90
16827;DHT22;8530;49.540;8.576;2023-05-13T01:52:56;10.00;99.90
16827;DHT22;8530;49.540;8.576;2023-05-13T01:55:23;10.00;99.90
16827;DHT22;8530;49.540;8.576;2023-05-13T01:57:51;10.00;99.90
16827;DHT22;8530;49.540;8.576;2023-05-13T02:00:18;10.00;99.90
16827;DHT22;8530;49.540;8.576;2023-05-13T02:02:44;10.00;99.90
16827;DHT22;8530;49.540;8.576;2023-05-13T02:05:12;10.00;99.90
16827;DHT22;8530;49.540;8.576;2023-05-13T02:07:38;10.10;99.90
16827;DHT22;8530;49.540;8.576;2023-05-13T02:10:06;10.10;99.90
16827;DHT22;8530;49.540;8.576;2023-05-13T02:12:32;10.20;99.90
16827;DHT22;8530;49.540;8.576;2023-05-13T02:15:00;10.20;99.90
16827;DHT22;8530;49.540;8.576;2023-05-13T02:17:27;10.20;99.90
16827;DHT22;8530;49.540;8.576;2023-05-13T02:19:54;10.30;99.90
16827;DHT22;8530;49.540;8.576;2023-05-13T02:22:20;10.30;99.90
16827;DHT22;8530;49.540;8.576;2023-05-13T02:24:47;10.30;99.90
16827;DHT22;8530;49.540;8.576;2023-05-13T02:27:14;10.20;99.90
16827;DHT22;8530;49.540;8.576;2023-05-13T02:29:41;10.20;99.90
16827;DHT22;8530;49.540;8.576;2023-05-13T02:32:09;10.20;99.90
16827;DHT22;8530;49.540;8.576;2023-05-13T02:34:36;10.20;99.90
16827;DHT22;8530;49.540;8.576;2023-05-13T02:37:03;10.20;99.90
16827;DHT22;8530;49.540;8.576;2023-05-13T02:39:30;10.10;99.90
16827;DHT22;8530;49.540;8.576;2023-05-13T02:41:57;10.00;99.90
16827;DHT22;8530;49.540;8.576;2023-05-13T02:44:24;10.00;99.90
16827;DHT22;8530;49.540;8.576;2023-05-13T02:46:50;9.90;99.90
16827;DHT22;8530;49.540;8.576;2023-05-13T02:49:18;9.80;99.90
16827;DHT22;8530;49.540;8.576;2023-05-13T02:51:45;9.80;99.90
16827;DHT22;8530;49.540;8.576;2023-05-13T02:54:12;9.70;99.90
16827;DHT22;8530;49.540;8.576;2023-05-13T02:56:39;9.70;99.90
16827;DHT22;8530;49.540;8.576;2023-05-13T02:59:06;9.70;99.90
16827;DHT22;8530;49.540;8.576;2023-05-13T03:01:32;9.60;99.90
16827;DHT22;8530;49.540;8.576;2023-05-13T03:03:59;9.70;99.90
16827;DHT22;8530;49.540;8.576;2023-05-13T03:06:27;9.70;99.90
16827;DHT22;8530;49.540;8.576;2023-05-13T03:08:54;9.70;99.90
16827;DHT22;8530;49.540;8.576;2023-05-13T03:11:20;9.70;99.90
16827;DHT22;8530;49.540;8.576;2023-05-13T03:13:47;9.80;99.90
16827;DHT22;8530;49.540;8.576;2023-05-13T03:16:13;9.90;99.90
16827;DHT22;8530;49.540;8.576;2023-05-13T03:18:40;9.90;99.90
16827;DHT22;8530;49.540;8.576;2023-05-13T03:21:07;9.90;99.90
16827;DHT22;8530;49.540;8.576;2023-05-13T03:23:38;9.90;99.90
16827;DHT22;8530;49.540;8.576;2023-05-13T03:26:04;9.90;99.90
16827;DHT22;8530;49.540;8.576;2023-05-13T03:28:31;9.80;99.90
16827;DHT22;8530;49.540;8.576;2023-05-13T03:30:58;9.80;99.90
16827;DHT22;8530;49.540;8.576;2023-05-13T03:33:24;9.80;99.90
16827;DHT22;8530;49.540;8.576;2023-05-13T03:35:53;9.70;99.90
16827;DHT22;8530;49.540;8.576;2023-05-13T03:38:20;9.70;99.90
16827;DHT22;8530;49.540;8.576;2023-05-13T03:40:49;9.70;99.90
16827;DHT22;8530;49.540;8.576;2023-05-13T03:43:15;9.70;99.90
16827;DHT22;8530;49.540;8.576;2023-05-13T03:45:42;9.70;99.90
16827;DHT22;8530;49.540;8.576;2023-05-13T03:48:12;9.70;99.90
16827;DHT22;8530;49.540;8.576;2023-05-13T03:50:38;9.70;99.90
16827;DHT22;8530;49.540;8.576;2023-05-13T03:53:05;9.70;99.90
16827;DHT22;8530;49.540;8.576;2023-05-13T03:55:32;9.80;99.90
16827;DHT22;8530;49.540;8.576;2023-05-13T03:58:09;9.80;99.90
16827;DHT22;8530;49.540;8.576;2023-05-13T04:00:37;9.80;99.90
16827;DHT22;8530;49.540;8.576;2023-05-13T04:03:03;9.70;99.90
16827;DHT22;8530;49.540;8.576;2023-05-13T04:05:30;9.80;99.90
16827;DHT22;8530;49.540;8.576;2023-05-13T04:07:57;9.80;99.90
16827;DHT22;8530;49.540;8.576;2023-05-13T04:10:23;9.80;99.90
16827;DHT22;8530;49.540;8.576;2023-05-13T04:12:50;9.90;99.90
16827;DHT22;8530;49.540;8.576;2023-05-13T04:15:18;10.00;99.90
16827;DHT22;8530;49.540;8.576;2023-05-13T04:17:45;10.00;99.90
16827;DHT22;8530;49.540;8.576;2023-05-13T04:20:12;10.10;99.90
16827;DHT22;8530;49.540;8.576;2023-05-13T04:22:39;10.20;99.90
16827;DHT22;8530;49.540;8.576;2023-05-13T04:25:06;10.30;99.90
16827;DHT22;8530;49.540;8.576;2023-05-13T04:27:33;10.50;99.90
16827;DHT22;8530;49.540;8.576;2023-05-13T04:29:59;10.60;99.90
16827;DHT22;8530;49.540;8.576;2023-05-13T04:32:27;10.70;99.90
16827;DHT22;8530;49.540;8.576;2023-05-13T04:34:54;10.90;99.90
16827;DHT22;8530;49.540;8.576;2023-05-13T04:37:21;11.10;99.90
16827;DHT22;8530;49.540;8.576;2023-05-13T04:39:47;11.40;99.90
16827;DHT22;8530;49.540;8.576;2023-05-13T04:42:14;11.60;99.90
16827;DHT22;8530;49.540;8.576;2023-05-13T04:44:41;11.70;99.90
16827;DHT22;8530;49.540;8.576;2023-05-13T04:47:08;11.90;99.90
16827;DHT22;8530;49.540;8.576;2023-05-13T04:49:36;12.00;99.90
16827;DHT22;8530;49.540;8.576;2023-05-13T04:52:04;12.10;99.90
16827;DHT22;8530;49.540;8.576;2023-05-13T04:54:31;12.20;99.90
16827;DHT22;8530;49.540;8.576;2023-05-13T04:56:59;12.40;99.90
16827;DHT22;8530;49.540;8.576;2023-05-13T04:59:26;12.60;99.90
16827;DHT22;8530;49.540;8.576;2023-05-13T05:01:53;12.90;99.90
16827;DHT22;8530;49.540;8.576;2023-05-13T05:04:20;13.20;99.90
16827;DHT22;8530;49.540;8.576;2023-05-13T05:06:48;13.30;99.90
16827;DHT22;8530;49.540;8.576;2023-05-13T05:09:14;13.40;99.90
16827;DHT22;8530;49.540;8.576;2023-05-13T05:11:42;13.60;99.90
16827;DHT22;8530;49.540;8.576;2023-05-13T05:14:08;13.60;99.90
16827;DHT22;8530;49.540;8.576;2023-05-13T05:16:35;13.80;99.90
16827;DHT22;8530;49.540;8.576;2023-05-13T05:19:02;13.90;99.90
16827;DHT22;8530;49.540;8.576;2023-05-13T05:21:29;13.90;99.90
16827;DHT22;8530;49.540;8.576;2023-05-13T05:23:57;14.10;99.90
16827;DHT22;8530;49.540;8.576;2023-05-13T05:26:26;14.30;99.90
16827;DHT22;8530;49.540;8.576;2023-05-13T05:28:52;14.50;99.90
16827;DHT22;8530;49.540;8.576;2023-05-13T05:31:23;14.60;99.90
16827;DHT22;8530;49.540;8.576;2023-05-13T05:33:51;14.80;99.90
16827;DHT22;8530;49.540;8.576;2023-05-13T05:36:18;15.00;99.90
16827;DHT22;8530;49.540;8.576;2023-05-13T05:38:44;15.20;99.90
16827;DHT22;8530;49.540;8.576;2023-05-13T05:41:13;15.30;99.90
16827;DHT22;8530;49.540;8.576;2023-05-13T05:43:40;15.50;99.90
16827;DHT22;8530;49.540;8.576;2023-05-13T05:46:06;15.70;99.90
16827;DHT22;8530;49.540;8.576;2023-05-13T05:48:33;15.90;99.90
16827;DHT22;8530;49.540;8.576;2023-05-13T05:51:00;16.10;99.90
16827;DHT22;8530;49.540;8.576;2023-05-13T05:53:27;17.20;99.90
16827;DHT22;8530;49.540;8.576;2023-05-13T05:55:53;19.00;99.90
16827;DHT22;8530;49.540;8.576;2023-05-13T05:58:22;21.30;99.90
16827;DHT22;8530;49.540;8.576;2023-05-13T06:00:51;23.50;99.50
16827;DHT22;8530;49.540;8.576;2023-05-13T06:03:18;25.30;97.40
16827;DHT22;8530;49.540;8.576;2023-05-13T06:05:45;26.80;94.60
16827;DHT22;8530;49.540;8.576;2023-05-13T06:08:12;28.20;91.40
16827;DHT22;8530;49.540;8.576;2023-05-13T06:10:38;29.40;85.80
16827;DHT22;8530;49.540;8.576;2023-05-13T06:13:05;30.80;78.60
16827;DHT22;8530;49.540;8.576;2023-05-13T06:15:33;32.30;69.70
16827;DHT22;8530;49.540;8.576;2023-05-13T06:18:00;33.60;59.70
16827;DHT22;8530;49.540;8.576;2023-05-13T06:20:30;34.60;54.00
16827;DHT22;8530;49.540;8.576;2023-05-13T06:22:57;34.70;47.50
16827;DHT22;8530;49.540;8.576;2023-05-13T06:25:24;33.60;43.40
16827;DHT22;8530;49.540;8.576;2023-05-13T06:27:51;32.10;41.80
16827;DHT22;8530;49.540;8.576;2023-05-13T06:30:17;30.70;40.40
16827;DHT22;8530;49.540;8.576;2023-05-13T06:32:45;29.40;40.00
16827;DHT22;8530;49.540;8.576;2023-05-13T06:35:12;28.40;39.70
16827;DHT22;8530;49.540;8.576;2023-05-13T06:37:39;27.60;39.60
16827;DHT22;8530;49.540;8.576;2023-05-13T06:40:07;27.10;39.60
16827;DHT22;8530;49.540;8.576;2023-05-13T06:42:33;27.30;39.20
16827;DHT22;8530;49.540;8.576;2023-05-13T06:45:06;27.40;38.80
16827;DHT22;8530;49.540;8.576;2023-05-13T06:47:32;27.70;38.10
16827;DHT22;8530;49.540;8.576;2023-05-13T06:50:01;27.80;37.40
16827;DHT22;8530;49.540;8.576;2023-05-13T06:52:28;27.80;36.90
16827;DHT22;8530;49.540;8.576;2023-05-13T06:54:56;27.90;36.70
16827;DHT22;8530;49.540;8.576;2023-05-13T06:57:24;28.20;37.30
16827;DHT22;8530;49.540;8.576;2023-05-13T06:59:50;29.70;37.90
16827;DHT22;8530;49.540;8.576;2023-05-13T07:02:17;32.10;37.10
16827;DHT22;8530;49.540;8.576;2023-05-13T07:04:44;34.50;35.00
16827;DHT22;8530;49.540;8.576;2023-05-13T07:07:12;36.50;32.00
16827;DHT22;8530;49.540;8.576;2023-05-13T07:09:39;37.60;29.00
16827;DHT22;8530;49.540;8.576;2023-05-13T07:12:05;38.40;27.70
16827;DHT22;8530;49.540;8.576;2023-05-13T07:14:34;39.10;26.30
16827;DHT22;8530;49.540;8.576;2023-05-13T07:17:01;39.80;25.20
16827;DHT22;8530;49.540;8.576;2023-05-13T07:19:28;40.40;23.70
16827;DHT22;8530;49.540;8.576;2023-05-13T07:21:55;40.10;22.80
16827;DHT22;8530;49.540;8.576;2023-05-13T07:24:23;40.20;22.40
16827;DHT22;8530;49.540;8.576;2023-05-13T07:26:50;40.60;21.80
16827;DHT22;8530;49.540;8.576;2023-05-13T07:29:16;40.60;21.60
16827;DHT22;8530;49.540;8.576;2023-05-13T07:31:43;40.50;21.20
16827;DHT22;8530;49.540;8.576;2023-05-13T07:34:10;40.40;20.80
16827;DHT22;8530;49.540;8.576;2023-05-13T07:36:36;40.50;20.40
16827;DHT22;8530;49.540;8.576;2023-05-13T07:39:03;41.00;20.00
16827;DHT22;8530;49.540;8.576;2023-05-13T07:41:31;41.80;19.40
16827;DHT22;8530;49.540;8.576;2023-05-13T07:43:58;42.50;18.60
16827;DHT22;8530;49.540;8.576;2023-05-13T07:46:25;42.50;18.30
16827;DHT22;8530;49.540;8.576;2023-05-13T07:48:52;41.10;17.70
16827;DHT22;8530;49.540;8.576;2023-05-13T07:51:19;38.80;17.40
16827;DHT22;8530;49.540;8.576;2023-05-13T07:53:45;36.40;17.50
16827;DHT22;8530;49.540;8.576;2023-05-13T07:56:12;34.60;17.80
16827;DHT22;8530;49.540;8.576;2023-05-13T07:58:40;32.70;18.20
16827;DHT22;8530;49.540;8.576;2023-05-13T08:01:07;31.40;18.80
16827;DHT22;8530;49.540;8.576;2023-05-13T08:03:33;30.50;19.30
16827;DHT22;8530;49.540;8.576;2023-05-13T08:06:00;29.50;19.80
16827;DHT22;8530;49.540;8.576;2023-05-13T08:08:27;28.50;20.50
16827;DHT22;8530;49.540;8.576;2023-05-13T08:10:53;27.80;21.10
16827;DHT22;8530;49.540;8.576;2023-05-13T08:13:20;27.20;21.80
16827;DHT22;8530;49.540;8.576;2023-05-13T08:15:48;26.80;22.40
16827;DHT22;8530;49.540;8.576;2023-05-13T08:18:16;26.40;22.90
16827;DHT22;8530;49.540;8.576;2023-05-13T08:20:42;26.00;23.30
16827;DHT22;8530;49.540;8.576;2023-05-13T08:23:09;25.80;23.80
16827;DHT22;8530;49.540;8.576;2023-05-13T08:25:36;25.60;24.20
16827;DHT22;8530;49.540;8.576;2023-05-13T08:28:03;25.30;24.70
16827;DHT22;8530;49.540;8.576;2023-05-13T08:30:29;25.10;25.10
16827;DHT22;8530;49.540;8.576;2023-05-13T08:32:58;24.80;25.30
16827;DHT22;8530;49.540;8.576;2023-05-13T08:35:24;24.70;25.70
16827;DHT22;8530;49.540;8.576;2023-05-13T08:37:51;24.70;26.00
16827;DHT22;8530;49.540;8.576;2023-05-13T08:40:19;24.50;26.10
16827;DHT22;8530;49.540;8.576;2023-05-13T08:42:46;24.20;26.40
16827;DHT22;8530;49.540;8.576;2023-05-13T08:45:16;24.00;26.80
16827;DHT22;8530;49.540;8.576;2023-05-13T08:47:49;23.90;27.20
16827;DHT22;8530;49.540;8.576;2023-05-13T08:50:18;23.70;27.80
16827;DHT22;8530;49.540;8.576;2023-05-13T08:52:45;23.50;27.60
16827;DHT22;8530;49.540;8.576;2023-05-13T08:55:12;23.50;27.90
16827;DHT22;8530;49.540;8.576;2023-05-13T08:57:39;23.40;28.30
16827;DHT22;8530;49.540;8.576;2023-05-13T09:00:07;23.20;28.50
16827;DHT22;8530;49.540;8.576;2023-05-13T09:02:34;23.20;28.70
16827;DHT22;8530;49.540;8.576;2023-05-13T09:05:04;23.20;28.90
16827;DHT22;8530;49.540;8.576;2023-05-13T09:07:32;23.30;29.30
16827;DHT22;8530;49.540;8.576;2023-05-13T09:09:59;23.30;29.40
16827;DHT22;8530;49.540;8.576;2023-05-13T09:12:42;23.40;29.50
16827;DHT22;8530;49.540;8.576;2023-05-13T09:15:11;23.60;29.90
16827;DHT22;8530;49.540;8.576;2023-05-13T09:17:38;23.80;29.70
16827;DHT22;8530;49.540;8.576;2023-05-13T09:20:07;23.90;29.70
16827;DHT22;8530;49.540;8.576;2023-05-13T09:22:36;24.10;30.20
16827;DHT22;8530;49.540;8.576;2023-05-13T09:25:07;24.40;29.80
16827;DHT22;8530;49.540;8.576;2023-05-13T09:27:38;24.50;29.90
16827;DHT22;8530;49.540;8.576;2023-05-13T09:30:06;24.90;30.10
16827;DHT22;8530;49.540;8.576;2023-05-13T09:32:33;25.40;30.10
16827;DHT22;8530;49.540;8.576;2023-05-13T09:35:08;25.70;29.90
16827;DHT22;8530;49.540;8.576;2023-05-13T09:37:36;25.60;30.00
16827;DHT22;8530;49.540;8.576;2023-05-13T09:40:04;25.80;29.90
16827;DHT22;8530;49.540;8.576;2023-05-13T09:42:31;26.00;29.60
16827;DHT22;8530;49.540;8.576;2023-05-13T09:45:03;26.00;29.30
16827;DHT22;8530;49.540;8.576;2023-05-13T09:47:31;26.00;29.00
16827;DHT22;8530;49.540;8.576;2023-05-13T09:50:00;25.90;28.90
16827;DHT22;8530;49.540;8.576;2023-05-13T09:52:28;26.00;28.80
16827;DHT22;8530;49.540;8.576;2023-05-13T09:54:56;26.10;28.50
16827;DHT22;8530;49.540;8.576;2023-05-13T09:57:25;26.10;28.20
16827;DHT22;8530;49.540;8.576;2023-05-13T09:59:55;26.10;28.20
16827;DHT22;8530;49.540;8.576;2023-05-13T10:02:22;26.00;27.90
16827;DHT22;8530;49.540;8.576;2023-05-13T10:04:50;25.90;27.80
16827;DHT22;8530;49.540;8.576;2023-05-13T10:07:18;25.90;28.00
16827;DHT22;8530;49.540;8.576;2023-05-13T10:09:50;26.00;28.00
16827;DHT22;8530;49.540;8.576;2023-05-13T10:12:20;26.10;27.80
16827;DHT22;8530;49.540;8.576;2023-05-13T10:14:49;26.10;27.70
16827;DHT22;8530;49.540;8.576;2023-05-13T10:17:17;26.10;27.70
16827;DHT22;8530;49.540;8.576;2023-05-13T10:19:44;26.30;27.60
16827;DHT22;8530;49.540;8.576;2023-05-13T10:22:11;26.20;27.40
16827;DHT22;8530;49.540;8.576;2023-05-13T10:24:40;26.00;27.40
16827;DHT22;8530;49.540;8.576;2023-05-13T10:27:10;25.60;27.40
16827;DHT22;8530;49.540;8.576;2023-05-13T10:29:38;25.40;27.60
16827;DHT22;8530;49.540;8.576;2023-05-13T10:32:08;25.10;27.60
16827;DHT22;8530;49.540;8.576;2023-05-13T10:34:36;25.00;27.70
16827;DHT22;8530;49.540;8.576;2023-05-13T10:37:19;24.90;27.70
16827;DHT22;8530;49.540;8.576;2023-05-13T10:40:05;24.80;28.20
16827;DHT22;8530;49.540;8.576;2023-05-13T10:42:41;24.80;27.90
16827;DHT22;8530;49.540;8.576;2023-05-13T10:45:10;24.90;28.00
16827;DHT22;8530;49.540;8.576;2023-05-13T10:47:37;25.00;28.10
16827;DHT22;8530;49.540;8.576;2023-05-13T10:50:21;25.20;28.20
16827;DHT22;8530;49.540;8.576;2023-05-13T10:52:48;25.20;28.20
16827;DHT22;8530;49.540;8.576;2023-05-13T10:55:16;25.40;28.20
16827;DHT22;8530;49.540;8.576;2023-05-13T10:58:08;25.50;28.10
16827;DHT22;8530;49.540;8.576;2023-05-13T11:00:38;25.70;28.10
16827;DHT22;8530;49.540;8.576;2023-05-13T11:03:09;25.70;28.00
16827;DHT22;8530;49.540;8.576;2023-05-13T11:05:38;25.90;28.10
16827;DHT22;8530;49.540;8.576;2023-05-13T11:08:05;26.00;28.00
16827;DHT22;8530;49.540;8.576;2023-05-13T11:10:32;26.00;27.90
16827;DHT22;8530;49.540;8.576;2023-05-13T11:13:20;26.10;28.00
16827;DHT22;8530;49.540;8.576;2023-05-13T11:15:51;26.20;28.00
16827;DHT22;8530;49.540;8.576;2023-05-13T11:18:19;26.10;27.90
16827;DHT22;8530;49.540;8.576;2023-05-13T11:20:51;26.00;28.00
16827;DHT22;8530;49.540;8.576;2023-05-13T11:23:19;26.20;28.20
16827;DHT22;8530;49.540;8.576;2023-05-13T11:26:08;26.10;28.10
16827;DHT22;8530;49.540;8.576;2023-05-13T11:28:56;25.70;28.10
16827;DHT22;8530;49.540;8.576;2023-05-13T11:31:25;25.10;28.20
16827;DHT22;8530;49.540;8.576;2023-05-13T11:34:05;24.70;28.60
16827;DHT22;8530;49.540;8.576;2023-05-13T11:36:33;24.40;29.40
16827;DHT22;8530;49.540;8.576;2023-05-13T11:39:05;24.30;29.00
16827;DHT22;8530;49.540;8.576;2023-05-13T11:41:33;24.40;29.20
16827;DHT22;8530;49.540;8.576;2023-05-13T11:44:00;24.60;29.30
16827;DHT22;8530;49.540;8.576;2023-05-13T11:46:29;24.80;29.20
16827;DHT22;8530;49.540;8.576;2023-05-13T11:48:56;25.00;29.20
16827;DHT22;8530;49.540;8.576;2023-05-13T11:51:22;25.20;29.00
16827;DHT22;8530;49.540;8.576;2023-05-13T11:53:49;25.40;28.80
16827;DHT22;8530;49.540;8.576;2023-05-13T11:56:17;25.60;28.80
16827;DHT22;8530;49.540;8.576;2023-05-13T11:58:44;25.80;28.70
16827;DHT22;8530;49.540;8.576;2023-05-13T12:01:13;25.70;28.50
16827;DHT22;8530;49.540;8.576;2023-05-13T12:03:41;25.60;28.50
16827;DHT22;8530;49.540;8.576;2023-05-13T12:06:08;25.50;28.50
16827;DHT22;8530;49.540;8.576;2023-05-13T12:08:42;25.50;28.60
16827;DHT22;8530;49.540;8.576;2023-05-13T12:11:09;25.70;28.40
16827;DHT22;8530;49.540;8.576;2023-05-13T12:13:40;25.70;28.20
16827;DHT22;8530;49.540;8.576;2023-05-13T12:16:07;25.50;28.10
16827;DHT22;8530;49.540;8.576;2023-05-13T12:18:36;25.60;28.10
16827;DHT22;8530;49.540;8.576;2023-05-13T12:21:14;25.60;27.90
16827;DHT22;8530;49.540;8.576;2023-05-13T12:23:41;25.50;28.00
16827;DHT22;8530;49.540;8.576;2023-05-13T12:26:08;25.60;28.00
16827;DHT22;8530;49.540;8.576;2023-05-13T12:28:35;25.80;27.90
16827;DHT22;8530;49.540;8.576;2023-05-13T12:31:03;25.90;27.70
16827;DHT22;8530;49.540;8.576;2023-05-13T12:33:31;25.80;28.00
16827;DHT22;8530;49.540;8.576;2023-05-13T12:36:19;25.70;27.60
16827;DHT22;8530;49.540;8.576;2023-05-13T12:38:54;25.60;27.70
16827;DHT22;8530;49.540;8.576;2023-05-13T12:41:21;25.70;27.90
16827;DHT22;8530;49.540;8.576;2023-05-13T12:43:50;25.80;27.90
16827;DHT22;8530;49.540;8.576;2023-05-13T12:46:17;25.90;27.90
16827;DHT22;8530;49.540;8.576;2023-05-13T12:48:45;25.90;27.90
16827;DHT22;8530;49.540;8.576;2023-05-13T12:51:11;25.90;27.90
16827;DHT22;8530;49.540;8.576;2023-05-13T12:53:41;26.10;28.00
16827;DHT22;8530;49.540;8.576;2023-05-13T12:56:08;26.40;28.00
16827;DHT22;8530;49.540;8.576;2023-05-13T12:58:35;26.70;27.90
16827;DHT22;8530;49.540;8.576;2023-05-13T13:01:02;26.50;27.60
16827;DHT22;8530;49.540;8.576;2023-05-13T13:03:28;26.30;27.60
16827;DHT22;8530;49.540;8.576;2023-05-13T13:05:55;26.00;27.70
16827;DHT22;8530;49.540;8.576;2023-05-13T13:08:23;25.90;27.80
16827;DHT22;8530;49.540;8.576;2023-05-13T13:10:51;26.00;28.00
16827;DHT22;8530;49.540;8.576;2023-05-13T13:13:18;26.30;28.00
16827;DHT22;8530;49.540;8.576;2023-05-13T13:15:44;26.50;27.80
16827;DHT22;8530;49.540;8.576;2023-05-13T13:18:11;26.70;27.80
16827;DHT22;8530;49.540;8.576;2023-05-13T13:20:38;26.70;27.60
16827;DHT22;8530;49.540;8.576;2023-05-13T13:23:04;26.70;27.60
16827;DHT22;8530;49.540;8.576;2023-05-13T13:25:31;26.70;27.70
16827;DHT22;8530;49.540;8.576;2023-05-13T13:27:59;26.60;27.70
16827;DHT22;8530;49.540;8.576;2023-05-13T13:30:26;26.60;27.70
16827;DHT22;8530;49.540;8.576;2023-05-13T13:32:53;26.30;27.60
16827;DHT22;8530;49.540;8.576;2023-05-13T13:35:19;26.00;27.40
16827;DHT22;8530;49.540;8.576;2023-05-13T13:37:46;25.60;27.60
16827;DHT22;8530;49.540;8.576;2023-05-13T13:40:13;25.40;27.80
16827;DHT22;8530;49.540;8.576;2023-05-13T13:42:41;25.30;27.90
16827;DHT22;8530;49.540;8.576;2023-05-13T13:45:10;25.40;28.00
16827;DHT22;8530;49.540;8.576;2023-05-13T13:47:37;25.60;27.90
16827;DHT22;8530;49.540;8.576;2023-05-13T13:50:04;25.60;27.80
16827;DHT22;8530;49.540;8.576;2023-05-13T13:52:31;25.40;27.70
16827;DHT22;8530;49.540;8.576;2023-05-13T13:54:58;25.20;27.80
16827;DHT22;8530;49.540;8.576;2023-05-13T13:57:25;25.10;27.90
16827;DHT22;8530;49.540;8.576;2023-05-13T13:59:51;25.00;27.90
16827;DHT22;8530;49.540;8.576;2023-05-13T14:02:19;25.20;28.00
16827;DHT22;8530;49.540;8.576;2023-05-13T14:04:46;25.20;27.80
16827;DHT22;8530;49.540;8.576;2023-05-13T14:07:13;25.00;27.80
16827;DHT22;8530;49.540;8.576;2023-05-13T14:09:39;24.90;27.80
16827;DHT22;8530;49.540;8.576;2023-05-13T14:12:06;24.80;27.80
16827;DHT22;8530;49.540;8.576;2023-05-13T14:14:33;24.70;27.80
16827;DHT22;8530;49.540;8.576;2023-05-13T14:17:00;24.60;27.70
16827;DHT22;8530;49.540;8.576;2023-05-13T14:19:28;24.50;27.70
16827;DHT22;8530;49.540;8.576;2023-05-13T14:21:54;24.30;27.80
16827;DHT22;8530;49.540;8.576;2023-05-13T14:24:21;24.30;27.80
16827;DHT22;8530;49.540;8.576;2023-05-13T14:26:48;24.30;28.00
16827;DHT22;8530;49.540;8.576;2023-05-13T14:29:15;24.30;28.20
16827;DHT22;8530;49.540;8.576;2023-05-13T14:31:41;24.30;28.20
16827;DHT22;8530;49.540;8.576;2023-05-13T14:34:08;24.20;28.30
16827;DHT22;8530;49.540;8.576;2023-05-13T14:36:36;24.40;28.60
16827;DHT22;8530;49.540;8.576;2023-05-13T14:39:03;24.40;28.60
16827;DHT22;8530;49.540;8.576;2023-05-13T14:41:30;24.40;28.50
16827;DHT22;8530;49.540;8.576;2023-05-13T14:43:56;24.30;28.50
16827;DHT22;8530;49.540;8.576;2023-05-13T14:46:23;24.10;28.60
16827;DHT22;8530;49.540;8.576;2023-05-13T14:48:50;24.10;28.80
16827;DHT22;8530;49.540;8.576;2023-05-13T14:51:16;24.10;28.80
16827;DHT22;8530;49.540;8.576;2023-05-13T14:53:44;24.10;28.80
16827;DHT22;8530;49.540;8.576;2023-05-13T14:56:11;24.10;28.80
16827;DHT22;8530;49.540;8.576;2023-05-13T14:58:38;24.00;28.70
16827;DHT22;8530;49.540;8.576;2023-05-13T15:01:04;23.90;28.90
16827;DHT22;8530;49.540;8.576;2023-05-13T15:03:31;23.80;29.10
16827;DHT22;8530;49.540;8.576;2023-05-13T15:05:58;23.70;29.30
16827;DHT22;8530;49.540;8.576;2023-05-13T15:08:25;23.60;29.50
16827;DHT22;8530;49.540;8.576;2023-05-13T15:10:53;23.60;29.90
16827;DHT22;8530;49.540;8.576;2023-05-13T15:13:20;23.70;30.10
16827;DHT22;8530;49.540;8.576;2023-05-13T15:15:49;23.70;30.20
16827;DHT22;8530;49.540;8.576;2023-05-13T15:18:15;23.80;30.50
16827;DHT22;8530;49.540;8.576;2023-05-13T15:20:42;23.90;30.70
16827;DHT22;8530;49.540;8.576;2023-05-13T15:23:09;24.10;30.90
16827;DHT22;8530;49.540;8.576;2023-05-13T15:25:36;24.20;30.90
16827;DHT22;8530;49.540;8.576;2023-05-13T15:28:04;24.40;31.10
16827;DHT22;8530;49.540;8.576;2023-05-13T15:30:31;24.50;31.00
16827;DHT22;8530;49.540;8.576;2023-05-13T15:33:00;24.50;30.90
16827;DHT22;8530;49.540;8.576;2023-05-13T15:35:27;24.40;30.80
16827;DHT22;8530;49.540;8.576;2023-05-13T15:37:54;24.30;30.70
16827;DHT22;8530;49.540;8.576;2023-05-13T15:40:21;24.30;30.90
16827;DHT22;8530;49.540;8.576;2023-05-13T15:42:47;24.20;30.90
16827;DHT22;8530;49.540;8.576;2023-05-13T15:45:16;24.20;31.10
16827;DHT22;8530;49.540;8.576;2023-05-13T15:47:42;24.30;31.30
16827;DHT22;8530;49.540;8.576;2023-05-13T15:50:10;24.40;31.40
16827;DHT22;8530;49.540;8.576;2023-05-13T15:52:36;24.60;31.40